Time;durP1;ratioP1;P1;durP2;ratioP2;P2;SDS_P1;SDS_P2;PMS_P1;PMS_P2;Temp;Humidity;BMP_temperature;BMP_pressure;BME280_temperature;BME280_humidity;BME280_pressure;Samples;Min_cycle;Max_cycle;Signal;HPM_P1;HPM_P2
2022/10/17 00:00:47;;;;;;;22.85;17.52;;;;;;;12.48;100.00;101490.53;5050921;28;20025;-61
2022/10/17 00:03:12;;;;;;;23.15;18.02;;;;;;;12.51;100.00;101491.91;5051161;28;20457;-60
2022/10/17 00:05:42;;;;;;;24.75;18.35;;;;;;;12.47;100.00;101489.72;5032669;28;20033;-60
2022/10/17 00:08:08;;;;;;;24.50;18.30;;;;;;;12.48;100.00;101491.38;5050660;28;20136;-60
2022/10/17 00:10:34;;;;;;;23.10;18.30;;;;;;;12.50;100.00;101499.38;5051112;28;20064;-61
2022/10/17 00:12:59;;;;;;;22.85;18.05;;;;;;;12.49;100.00;101494.94;5051107;28;20037;-60
2022/10/17 00:15:24;;;;;;;24.73;19.00;;;;;;;12.49;100.00;101494.94;5050870;28;20063;-61
2022/10/17 00:17:50;;;;;;;24.27;18.63;;;;;;;12.49;100.00;101492.19;5050453;28;20112;-60
2022/10/17 00:20:15;;;;;;;23.83;18.50;;;;;;;12.50;100.00;101491.06;5050670;28;20124;-61
2022/10/17 00:22:41;;;;;;;24.48;18.20;;;;;;;12.51;100.00;101483.56;5051325;28;20044;-60
2022/10/17 00:25:07;;;;;;;24.30;18.15;;;;;;;12.49;100.00;101489.41;5050861;28;20067;-60
2022/10/17 00:27:37;;;;;;;24.42;18.42;;;;;;;12.50;100.00;101476.38;5032769;28;20040;-60
2022/10/17 00:30:04;;;;;;;22.75;17.75;;;;;;;12.50;100.00;101476.38;5051179;28;20044;-60
2022/10/17 00:32:30;;;;;;;23.70;18.33;;;;;;;12.50;100.00;101474.41;5050829;28;20053;-61
2022/10/17 00:34:56;;;;;;;24.52;18.17;;;;;;;12.47;100.00;101478.63;5052382;28;20109;-60
2022/10/17 00:37:22;;;;;;;26.65;18.67;;;;;;;12.50;100.00;101479.16;5054651;28;20110;-60
2022/10/17 00:39:47;;;;;;;23.08;18.70;;;;;;;12.49;100.00;101469.97;5053799;28;20075;-61
2022/10/17 00:42:12;;;;;;;24.25;18.42;;;;;;;12.51;100.00;101464.94;5054050;28;20033;-60
2022/10/17 00:44:40;;;;;;;23.42;18.65;;;;;;;12.51;100.00;101464.16;5054004;28;20031;-61
2022/10/17 00:47:12;;;;;;;23.67;18.15;;;;;;;12.49;100.00;101467.19;5054407;28;20029;-60
2022/10/17 00:49:39;;;;;;;23.55;18.42;;;;;;;12.49;100.00;101458.88;5054292;28;20522;-61
2022/10/17 00:52:20;;;;;;;24.40;18.63;;;;;;;12.50;100.00;101463.31;5054680;28;20057;-61
2022/10/17 00:54:50;;;;;;;23.13;18.27;;;;;;;12.48;100.00;101466.38;5054288;28;20460;-59
2022/10/17 00:57:16;;;;;;;24.30;18.85;;;;;;;12.52;100.00;101471.31;5054401;28;20087;-60
2022/10/17 00:59:44;;;;;;;24.58;19.20;;;;;;;12.50;100.00;101465.28;5054580;28;20060;-61
2022/10/17 01:02:13;;;;;;;24.30;18.63;;;;;;;12.51;100.00;101469.69;5036065;28;20476;-60
2022/10/17 01:04:41;;;;;;;25.08;18.02;;;;;;;12.44;100.00;101465.34;5053621;28;20025;-60
2022/10/17 01:07:07;;;;;;;23.60;17.48;;;;;;;12.53;100.00;101470.19;5053486;28;20106;-60
2022/10/17 01:09:33;;;;;;;24.52;18.48;;;;;;;12.52;100.00;101466.59;5053754;28;20084;-62
2022/10/17 01:12:19;;;;;;;24.52;17.85;;;;;;;12.53;100.00;101464.63;5054004;28;20033;-60
2022/10/17 01:14:47;;;;;;;24.13;18.48;;;;;;;12.54;100.00;101456.03;5053660;28;20112;-61
2022/10/17 01:17:30;;;;;;;24.42;18.92;;;;;;;12.55;100.00;101456.84;5053574;28;20048;-60
2022/10/17 01:20:22;;;;;;;23.93;18.60;;;;;;;12.56;100.00;101450.16;5035538;28;20472;-60
2022/10/17 01:23:05;;;;;;;24.98;19.20;;;;;;;12.58;100.00;101447.91;5035837;28;20116;-59
2022/10/17 01:25:49;;;;;;;24.52;18.98;;;;;;;12.60;100.00;101449.25;5053531;28;20118;-60
2022/10/17 01:28:19;;;;;;;24.65;19.13;;;;;;;12.61;100.00;101453.69;5035710;28;20401;-59
2022/10/17 01:31:09;;;;;;;25.60;19.27;;;;;;;12.62;100.00;101463.66;5053544;28;20028;-59
2022/10/17 01:33:38;;;;;;;26.08;20.52;;;;;;;12.67;100.00;101461.91;5053526;28;20036;-60
2022/10/17 01:36:51;;;;;;;26.85;19.42;;;;;;;12.67;100.00;101453.56;5053503;28;20349;-60
2022/10/17 01:39:43;;;;;;;23.52;18.88;;;;;;;12.71;100.00;101452.66;5014771;28;20174;-61
2022/10/17 01:42:21;;;;;;;25.20;19.10;;;;;;;12.76;100.00;101448.97;5053507;28;20082;-59
2022/10/17 01:44:46;;;;;;;25.65;19.52;;;;;;;12.77;100.00;101442.28;5052887;28;20025;-61
2022/10/17 01:47:20;;;;;;;25.13;19.25;;;;;;;12.76;100.00;101446.19;5053091;28;20045;-58
2022/10/17 01:49:50;;;;;;;24.70;19.60;;;;;;;12.81;100.00;101443.31;5052959;28;20029;-59
2022/10/17 01:52:23;;;;;;;26.42;20.33;;;;;;;12.83;100.00;101438.28;5053163;28;20044;-61
2022/10/17 01:55:12;;;;;;;24.48;19.15;;;;;;;12.84;100.00;101434.38;5053436;28;20041;-61
2022/10/17 01:57:50;;;;;;;27.58;20.50;;;;;;;12.89;100.00;101437.06;5049724;28;21695;-60
2022/10/17 02:00:19;;;;;;;25.92;20.38;;;;;;;12.93;100.00;101437.25;5046072;28;20035;-61
2022/10/17 02:02:48;;;;;;;25.88;20.60;;;;;;;12.96;100.00;101442.22;5042347;28;20349;-60
2022/10/17 02:05:16;;;;;;;27.30;20.73;;;;;;;12.98;100.00;101444.66;5053117;28;20087;-61
2022/10/17 02:07:41;;;;;;;27.90;21.00;;;;;;;13.00;100.00;101442.41;5038170;28;20025;-61
2022/10/17 02:10:17;;;;;;;25.83;20.25;;;;;;;12.97;100.00;101443.00;5032500;28;20473;-61
2022/10/17 02:13:00;;;;;;;27.38;20.38;;;;;;;12.97;100.00;101446.63;5032729;28;20044;-61
2022/10/17 02:16:13;;;;;;;28.20;20.55;;;;;;;12.96;100.00;101442.22;5041031;28;20047;-62
2022/10/17 02:19:00;;;;;;;25.30;20.17;;;;;;;12.90;100.00;101418.44;5010991;28;20041;-62
2022/10/17 02:22:04;;;;;;;25.83;20.33;;;;;;;12.94;100.00;101427.81;5052585;28;20040;-60
2022/10/17 02:24:48;;;;;;;28.42;20.83;;;;;;;12.96;100.00;101428.31;4997098;28;20075;-60
2022/10/17 02:27:16;;;;;;;;;;;;;;;12.91;100.00;101429.25;5052971;28;20021;-60
2022/10/17 02:29:46;;;;;;;26.92;19.75;;;;;;;12.89;100.00;101428.72;5034412;28;19912;-61
2022/10/17 02:32:27;;;;;;;26.08;19.80;;;;;;;12.82;100.00;101427.47;5046032;28;20455;-61
2022/10/17 02:34:55;;;;;;;28.52;21.15;;;;;;;12.88;100.00;101434.59;5032568;28;20025;-62
2022/10/17 02:37:26;;;;;;;27.75;20.50;;;;;;;12.84;100.00;101433.56;5032638;28;20445;-61
2022/10/17 02:39:55;;;;;;;26.63;20.88;;;;;;;12.79;100.00;101421.44;5032268;28;20113;-60
2022/10/17 02:42:22;;;;;;;25.83;20.02;;;;;;;12.84;100.00;101437.16;5032368;28;20120;-60
2022/10/17 02:44:48;;;;;;;27.08;20.58;;;;;;;12.83;100.00;101432.75;5032598;28;20029;-59
2022/10/17 02:47:28;;;;;;;27.50;20.40;;;;;;;12.83;100.00;101434.69;5032357;28;20049;-59
2022/10/17 02:49:55;;;;;;;27.92;20.77;;;;;;;12.76;100.00;101426.75;5032231;28;20087;-60
2022/10/17 02:52:35;;;;;;;28.10;20.60;;;;;;;12.85;100.00;101432.41;5030628;28;20397;-59
2022/10/17 02:55:16;;;;;;;30.40;20.63;;;;;;;12.86;100.00;101428.53;5032842;28;20122;-59
2022/10/17 02:57:48;;;;;;;29.55;20.90;;;;;;;12.77;100.00;101426.47;5031252;28;20500;-58
2022/10/17 03:00:15;;;;;;;28.27;20.30;;;;;;;12.86;100.00;101434.88;5032194;28;20026;-61
2022/10/17 03:02:50;;;;;;;26.90;20.65;;;;;;;12.89;100.00;101425.94;5031569;28;20421;-60
2022/10/17 03:05:18;;;;;;;28.13;21.08;;;;;;;12.85;100.00;101415.75;5031595;28;20021;-60
2022/10/17 03:07:43;;;;;;;27.38;20.80;;;;;;;12.90;100.00;101429.53;5049305;28;20036;-60
2022/10/17 03:10:09;;;;;;;28.42;20.02;;;;;;;12.93;100.00;101429.78;5051377;28;20049;-60
2022/10/17 03:12:34;;;;;;;29.05;21.02;;;;;;;12.96;100.00;101431.09;5051492;28;20032;-60
2022/10/17 03:15:00;;;;;;;26.00;19.33;;;;;;;12.98;100.00;101430.78;5051378;28;20037;-60
2022/10/17 03:17:25;;;;;;;26.88;20.10;;;;;;;13.00;100.00;101421.00;5051375;28;20025;-58
2022/10/17 03:19:50;;;;;;;27.10;20.58;;;;;;;12.98;100.00;101428.84;5051188;28;20479;-59
2022/10/17 03:22:15;;;;;;;26.55;19.77;;;;;;;13.00;100.00;101429.34;5051429;28;20025;-59
2022/10/17 03:24:41;;;;;;;29.67;20.45;;;;;;;13.04;100.00;101432.31;5051548;28;20107;-59
2022/10/17 03:27:06;;;;;;;27.52;20.60;;;;;;;13.05;100.00;101420.91;5051620;28;20029;-57
2022/10/17 03:29:31;;;;;;;27.17;20.45;;;;;;;13.10;100.00;101428.31;5051646;28;20084;-58
2022/10/17 03:31:57;;;;;;;28.58;19.90;;;;;;;13.10;100.00;101431.91;5051035;28;20032;-58
2022/10/17 03:34:22;;;;;;;27.25;20.17;;;;;;;13.11;100.00;101433.56;5051808;28;20032;-60
2022/10/17 03:36:47;;;;;;;27.98;21.15;;;;;;;13.14;100.00;101431.31;5051194;28;20025;-60
2022/10/17 03:39:13;;;;;;;30.20;21.13;;;;;;;13.15;100.00;101427.41;5051453;28;20036;-61
2022/10/17 03:41:38;;;;;;;29.08;21.05;;;;;;;13.18;100.00;101430.38;5051848;28;20025;-60
2022/10/17 03:44:03;;;;;;;28.60;20.52;;;;;;;13.15;100.00;101422.66;5051211;28;20025;-61
2022/10/17 03:46:29;;;;;;;31.52;20.50;;;;;;;13.19;100.00;101422.84;5051514;28;20063;-60
2022/10/17 03:48:54;;;;;;;30.00;21.27;;;;;;;13.18;100.00;101435.09;5051187;28;20031;-59
2022/10/17 03:51:19;;;;;;;26.85;20.27;;;;;;;13.19;100.00;101425.63;5051234;28;20112;-60
2022/10/17 03:53:45;;;;;;;27.25;20.77;;;;;;;13.19;100.00;101428.41;5051464;28;20107;-60
2022/10/17 03:56:16;;;;;;;26.63;20.35;;;;;;;13.20;100.00;101417.00;5051693;28;20044;-60
2022/10/17 03:58:42;;;;;;;27.30;20.35;;;;;;;13.23;100.00;101415.56;5051168;28;20104;-59
2022/10/17 04:01:10;;;;;;;26.60;20.13;;;;;;;13.19;100.00;101412.56;5033078;28;20123;-60
2022/10/17 04:03:35;;;;;;;26.85;20.17;;;;;;;13.27;100.00;101422.16;5050915;28;20412;-59
2022/10/17 04:06:03;;;;;;;27.45;20.30;;;;;;;13.31;100.00;101427.91;5051622;28;20116;-60
2022/10/17 04:08:29;;;;;;;27.65;20.60;;;;;;;13.26;100.00;101424.09;5051967;28;20036;-59
2022/10/17 04:11:03;;;;;;;28.17;20.48;;;;;;;13.34;100.00;101432.81;5055549;28;20468;-60
2022/10/17 04:13:29;;;;;;;28.02;20.33;;;;;;;13.38;100.00;101439.41;5055259;28;20029;-60
2022/10/17 04:16:01;;;;;;;27.42;20.23;;;;;;;13.35;100.00;101440.03;5055248;28;20017;-59
2022/10/17 04:18:27;;;;;;;30.30;21.25;;;;;;;13.45;100.00;101439.84;5055071;28;20064;-59
2022/10/17 04:20:52;;;;;;;27.85;19.80;;;;;;;13.49;100.00;101440.03;5036966;28;20211;-60
2022/10/17 04:23:18;;;;;;;27.50;20.35;;;;;;;13.50;100.00;101448.09;5055490;28;20032;-60
2022/10/17 04:25:44;;;;;;;27.70;19.60;;;;;;;13.56;100.00;101446.81;5055035;28;20029;-60
2022/10/17 04:28:10;;;;;;;27.45;19.90;;;;;;;13.60;100.00;101446.22;5054690;28;20116;-60
2022/10/17 04:30:35;;;;;;;25.52;19.38;;;;;;;13.62;100.00;101457.81;5054349;28;20077;-59
2022/10/17 04:33:00;;;;;;;26.85;19.55;;;;;;;13.64;100.00;101453.63;5054460;28;20021;-59
2022/10/17 04:35:26;;;;;;;26.90;18.90;;;;;;;13.71;100.00;101455.94;5054835;28;20115;-59
2022/10/17 04:37:51;;;;;;;25.77;18.83;;;;;;;13.75;100.00;101461.69;5054677;28;20067;-61
2022/10/17 04:40:17;;;;;;;26.73;19.77;;;;;;;13.80;100.00;101456.84;5053991;28;20056;-59
2022/10/17 04:42:42;;;;;;;26.52;19.00;;;;;;;13.89;100.00;101462.50;5054362;28;20039;-60
2022/10/17 04:45:08;;;;;;;25.08;18.92;;;;;;;13.91;100.00;101459.41;5054478;28;20479;-59
2022/10/17 04:47:33;;;;;;;27.20;18.88;;;;;;;13.92;100.00;101475.78;5054237;28;20025;-60
2022/10/17 04:49:59;;;;;;;26.63;18.20;;;;;;;13.90;100.00;101469.72;5055010;28;20455;-60
2022/10/17 04:52:24;;;;;;;26.02;18.90;;;;;;;13.89;100.00;101476.41;5054796;28;20017;-59
2022/10/17 04:54:50;;;;;;;24.25;18.20;;;;;;;13.91;100.00;101482.47;5036532;28;20079;-60
2022/10/17 04:57:15;;;;;;;24.38;19.25;;;;;;;13.89;100.00;101479.19;5036543;28;20075;-60
2022/10/17 04:59:41;;;;;;;26.98;19.13;;;;;;;13.88;100.00;101483.09;5054424;28;20032;-59
2022/10/17 05:02:06;;;;;;;25.60;18.13;;;;;;;13.86;100.00;101488.16;5053987;28;20067;-60
2022/10/17 05:04:34;;;;;;;26.15;18.80;;;;;;;13.84;100.00;101485.69;5054196;28;20029;-61
2022/10/17 05:06:59;;;;;;;26.00;18.20;;;;;;;13.81;100.00;101494.66;5053954;28;20029;-59
2022/10/17 05:09:24;;;;;;;26.27;18.15;;;;;;;13.79;100.00;101494.13;5053219;28;20397;-60
2022/10/17 05:11:50;;;;;;;24.17;17.70;;;;;;;13.79;100.00;101494.13;5054114;28;20032;-61
2022/10/17 05:14:15;;;;;;;25.10;18.38;;;;;;;13.76;100.00;101500.34;5054185;28;20025;-60
2022/10/17 05:16:40;;;;;;;25.90;18.33;;;;;;;13.77;100.00;101490.84;5054071;28;20033;-62
2022/10/17 05:19:06;;;;;;;26.38;18.63;;;;;;;13.77;100.00;101490.03;5053968;28;20029;-60
2022/10/17 05:21:32;;;;;;;25.80;18.63;;;;;;;13.76;100.00;101493.94;5034862;28;20033;-61
2022/10/17 05:23:57;;;;;;;25.48;18.48;;;;;;;13.73;100.00;101489.81;5053743;28;20333;-59
2022/10/17 05:26:23;;;;;;;25.23;18.48;;;;;;;13.76;100.00;101493.94;5054127;28;20048;-60
2022/10/17 05:28:51;;;;;;;25.98;19.23;;;;;;;13.78;100.00;101494.44;5053829;28;20017;-60
2022/10/17 05:31:17;;;;;;;25.80;18.25;;;;;;;13.78;100.00;101500.84;5054000;28;20033;-60
2022/10/17 05:33:42;;;;;;;25.50;18.05;;;;;;;13.80;100.00;101509.69;5053657;28;20344;-59
2022/10/17 05:36:08;;;;;;;25.40;18.20;;;;;;;13.79;100.00;101510.00;5053174;28;20417;-59
2022/10/17 05:38:33;;;;;;;25.33;18.05;;;;;;;13.80;100.00;101506.91;5053448;28;20036;-59
2022/10/17 05:41:04;;;;;;;25.70;19.95;;;;;;;13.80;100.00;101506.09;5053673;28;20029;-59
2022/10/17 05:43:29;;;;;;;25.80;18.73;;;;;;;13.82;100.00;101520.50;5053374;28;20029;-59
2022/10/17 05:45:55;;;;;;;26.25;18.67;;;;;;;13.83;100.00;101517.41;5053424;28;20032;-59
2022/10/17 05:48:22;;;;;;;27.83;19.35;;;;;;;13.85;100.00;101508.75;5035411;28;20029;-60
2022/10/17 05:50:48;;;;;;;26.35;19.25;;;;;;;13.88;100.00;101517.31;5053246;28;20155;-60
2022/10/17 05:53:14;;;;;;;24.77;18.55;;;;;;;13.88;100.00;101519.25;5053010;28;20430;-59
2022/10/17 05:55:40;;;;;;;25.80;18.65;;;;;;;13.89;100.00;101518.94;5053502;28;20127;-59
2022/10/17 05:58:05;;;;;;;24.88;18.15;;;;;;;13.90;100.00;101522.56;5052774;28;20031;-59
2022/10/17 06:00:31;;;;;;;27.08;19.23;;;;;;;13.92;100.00;101523.06;5053298;28;20044;-59
2022/10/17 06:02:56;;;;;;;24.67;18.55;;;;;;;13.92;100.00;101519.44;5053026;28;20452;-59
2022/10/17 06:05:22;;;;;;;25.58;19.13;;;;;;;13.94;100.00;101519.97;5052721;28;20040;-58
2022/10/17 06:07:49;;;;;;;25.42;18.75;;;;;;;13.97;100.00;101533.25;5052619;28;20138;-60
2022/10/17 06:10:16;;;;;;;26.48;18.88;;;;;;;13.98;100.00;101523.78;5052068;28;20068;-60
2022/10/17 06:12:42;;;;;;;25.15;19.27;;;;;;;13.99;100.00;101526.25;5052666;28;20108;-60
2022/10/17 06:15:08;;;;;;;26.30;19.48;;;;;;;14.00;100.00;101518.69;5052611;28;20116;-62
2022/10/17 06:17:33;;;;;;;27.85;19.70;;;;;;;14.00;100.00;101516.75;5034833;28;20424;-60
2022/10/17 06:19:59;;;;;;;24.30;19.23;;;;;;;14.01;100.00;101528.69;5034546;28;20064;-60
2022/10/17 06:22:24;;;;;;;25.35;19.50;;;;;;;14.03;100.00;101534.78;5052106;28;20032;-61
2022/10/17 06:24:51;;;;;;;27.38;21.00;;;;;;;14.04;100.00;101537.25;5034691;28;20021;-60
2022/10/17 06:27:16;;;;;;;25.95;19.80;;;;;;;14.06;100.00;101533.31;5052565;28;20028;-60
2022/10/17 06:29:42;;;;;;;25.95;19.27;;;;;;;14.08;100.00;101536.63;5052363;28;20033;-59
2022/10/17 06:32:07;;;;;;;26.58;18.77;;;;;;;14.11;100.00;101541.56;5052434;28;20048;-59
2022/10/17 06:34:32;;;;;;;28.23;20.92;;;;;;;14.11;100.00;101536.81;5052046;28;20025;-60
2022/10/17 06:36:58;;;;;;;25.48;19.30;;;;;;;14.15;100.00;101537.00;5050948;28;20040;-59
2022/10/17 06:39:25;;;;;;;25.80;18.55;;;;;;;14.16;100.00;101541.44;5033423;28;20068;-60
2022/10/17 06:41:51;;;;;;;25.38;18.50;;;;;;;14.16;100.00;101528.38;5033898;28;20028;-59
2022/10/17 06:44:16;;;;;;;23.58;17.85;;;;;;;14.18;100.00;101534.41;5051497;28;20388;-60
2022/10/17 06:46:42;;;;;;;25.63;18.40;;;;;;;14.20;100.00;101534.94;5051433;28;20056;-60
2022/10/17 06:49:09;;;;;;;25.77;18.40;;;;;;;14.25;100.00;101538.75;5051368;28;20040;-60
2022/10/17 06:51:35;;;;;;;25.98;17.98;;;;;;;14.30;100.00;101541.41;5052620;28;20041;-60
2022/10/17 06:54:01;;;;;;;23.50;16.98;;;;;;;14.34;100.00;101548.00;5051613;28;20127;-59
2022/10/17 06:56:26;;;;;;;24.85;17.77;;;;;;;14.39;100.00;101547.84;5051466;28;20100;-60
2022/10/17 06:58:52;;;;;;;22.88;16.40;;;;;;;14.44;100.00;101560.81;5033676;28;20547;-60
2022/10/17 07:01:19;;;;;;;24.80;18.88;;;;;;;14.49;100.00;101566.28;5051788;28;20532;-61
2022/10/17 07:03:48;;;;;;;27.52;18.35;;;;;;;14.55;100.00;101561.44;5033642;28;20053;-60
2022/10/17 07:06:14;;;;;;;26.35;17.27;;;;;;;14.61;100.00;101558.16;5033701;28;20096;-60
2022/10/17 07:08:43;;;;;;;24.13;17.10;;;;;;;14.68;100.00;101556.97;5051405;28;20112;-60
2022/10/17 07:11:14;;;;;;;24.13;16.73;;;;;;;14.63;100.00;101539.19;5051412;28;20029;-60
2022/10/17 07:13:39;;;;;;;24.55;17.67;;;;;;;14.80;100.00;101557.19;5051785;28;20456;-59
2022/10/17 07:16:05;;;;;;;25.48;17.92;;;;;;;14.86;100.00;101563.44;5051919;28;20021;-63
2022/10/17 07:18:31;;;;;;;24.60;18.42;;;;;;;14.90;100.00;101561.69;5052159;28;20086;-60
2022/10/17 07:20:56;;;;;;;24.50;17.67;;;;;;;14.96;100.00;101569.59;5051824;28;20376;-60
2022/10/17 07:23:22;;;;;;;23.38;16.15;;;;;;;15.00;100.00;101568.94;5051853;28;20037;-60
2022/10/17 07:25:48;;;;;;;25.40;17.48;;;;;;;15.06;100.00;101568.50;5051652;28;20025;-60
2022/10/17 07:28:13;;;;;;;23.85;17.17;;;;;;;15.08;100.00;101571.78;5050918;28;20371;-60
2022/10/17 07:30:39;;;;;;;23.50;17.17;;;;;;;15.10;100.00;101580.66;5051426;28;20037;-59
2022/10/17 07:33:04;;;;;;;24.48;16.25;;;;;;;15.10;100.00;101580.66;5051279;28;20456;-61
2022/10/17 07:35:29;;;;;;;22.85;15.77;;;;;;;15.10;100.00;101586.22;5051350;28;20042;-59
2022/10/17 07:37:55;;;;;;;22.85;16.13;;;;;;;15.11;100.00;101593.44;5032742;28;20378;-61
2022/10/17 07:40:20;;;;;;;23.88;16.13;;;;;;;15.12;100.00;101603.44;5051108;28;20545;-62
2022/10/17 07:42:45;;;;;;;24.50;16.52;;;;;;;15.12;100.00;101616.56;5051454;28;20037;-61
2022/10/17 07:45:11;;;;;;;23.88;17.40;;;;;;;15.12;100.00;101634.09;5054852;28;20041;-60
2022/10/17 07:47:36;;;;;;;24.98;17.35;;;;;;;15.19;100.00;101649.56;5055304;28;20028;-63
2022/10/17 07:50:04;;;;;;;22.05;16.50;;;;;;;15.15;100.00;101665.25;5055142;28;20471;-61
2022/10/17 07:52:29;;;;;;;24.30;17.73;;;;;;;15.21;100.00;101689.91;5036913;28;20049;-61
2022/10/17 07:54:54;;;;;;;22.67;17.27;;;;;;;15.23;100.00;101700.72;5055044;28;20489;-61
2022/10/17 07:57:20;;;;;;;23.67;17.00;;;;;;;15.22;100.00;101705.50;5054850;28;20043;-61
2022/10/17 07:59:46;;;;;;;23.33;17.00;;;;;;;15.25;100.00;101723.53;5054696;28;20080;-60
2022/10/17 08:02:24;;;;;;;22.98;16.52;;;;;;;15.30;100.00;101717.84;5038322;28;20380;-61
2022/10/17 08:04:51;;;;;;;20.83;15.18;;;;;;;15.47;100.00;101703.19;5033512;28;20144;-61
2022/10/17 08:07:16;;;;;;;22.92;15.23;;;;;;;15.59;100.00;101719.31;5033304;28;20036;-60
2022/10/17 08:09:43;;;;;;;20.90;15.30;;;;;;;15.62;100.00;101704.75;5033492;28;20057;-61
2022/10/17 08:12:09;;;;;;;22.55;15.15;;;;;;;15.66;100.00;101714.13;5033661;28;20524;-61
2022/10/17 08:14:34;;;;;;;22.77;14.75;;;;;;;15.71;100.00;101727.94;5034315;28;20040;-60
2022/10/17 08:17:00;;;;;;;21.80;15.02;;;;;;;15.70;100.00;101694.78;5033381;28;20017;-60
2022/10/17 08:19:25;;;;;;;21.45;14.93;;;;;;;15.70;100.00;101705.94;5032465;28;20124;-60
2022/10/17 08:21:51;;;;;;;21.73;14.85;;;;;;;15.70;100.00;101717.91;5033251;28;20044;-59
2022/10/17 08:24:17;;;;;;;21.58;14.20;;;;;;;15.70;100.00;101717.09;5033345;28;20095;-61
2022/10/17 08:26:42;;;;;;;21.58;15.43;;;;;;;15.69;100.00;101746.13;5033470;28;20065;-60
2022/10/17 08:29:15;;;;;;;21.55;15.30;;;;;;;15.67;100.00;101766.00;5015166;28;20439;-59
2022/10/17 08:31:40;;;;;;;21.03;14.70;;;;;;;15.63;100.00;101780.88;5033250;28;20120;-61
2022/10/17 08:34:06;;;;;;;20.20;14.88;;;;;;;15.65;100.00;101798.94;5033315;28;20148;-61
2022/10/17 08:36:31;;;;;;;22.67;15.05;;;;;;;15.64;100.00;101774.97;5036764;28;20083;-61
2022/10/17 08:38:56;;;;;;;23.05;15.10;;;;;;;15.61;100.00;101781.19;5054157;28;20083;-61
2022/10/17 08:41:36;;;;;;;22.55;15.52;;;;;;;15.56;100.00;101772.97;5047093;28;20043;-59
2022/10/17 08:44:34;;;;;;;21.75;15.45;;;;;;;15.56;100.00;101768.19;5048638;28;20526;-60
2022/10/17 08:47:04;;;;;;;22.80;15.50;;;;;;;15.55;100.00;101769.34;5052823;28;20029;-60
2022/10/17 08:49:46;;;;;;;22.95;16.05;;;;;;;15.54;100.00;101769.66;5052008;28;20045;-62
2022/10/17 08:52:32;;;;;;;22.98;15.60;;;;;;;15.51;100.00;101765.56;5045072;28;20033;-61
2022/10/17 08:54:58;;;;;;;23.33;16.15;;;;;;;15.48;100.00;101779.31;5046748;28;20030;-61
2022/10/17 08:57:24;;;;;;;23.00;15.68;;;;;;;15.45;100.00;101769.59;5044909;28;20037;-60
2022/10/17 08:59:52;;;;;;;24.92;16.35;;;;;;;15.39;100.00;101754.97;5046193;28;20051;-60
2022/10/17 09:02:35;;;;;;;22.05;16.65;;;;;;;15.46;100.00;101776.00;5049574;28;20041;-59
2022/10/17 09:05:24;;;;;;;26.50;17.20;;;;;;;15.44;100.00;101779.94;5052514;28;20510;-61
2022/10/17 09:08:05;;;;;;;23.30;15.45;;;;;;;15.43;100.00;101766.31;5052480;28;20057;-62
2022/10/17 09:11:06;;;;;;;23.63;16.58;;;;;;;15.43;100.00;101761.56;5052298;28;20055;-61
2022/10/17 09:13:50;;;;;;;24.40;16.33;;;;;;;15.37;100.00;101764.78;5043017;28;20049;-61
2022/10/17 09:16:32;;;;;;;21.48;15.38;;;;;;;15.35;100.00;101776.25;5052574;28;20114;-61
2022/10/17 09:19:13;;;;;;;25.20;16.02;;;;;;;15.41;100.00;101797.28;5051424;28;20112;-61
2022/10/17 09:21:44;;;;;;;22.42;16.27;;;;;;;15.40;100.00;101809.56;5051903;28;20086;-59
2022/10/17 09:24:24;;;;;;;22.35;16.30;;;;;;;15.40;100.00;101822.69;5046457;28;20107;-59
2022/10/17 09:26:50;;;;;;;22.73;16.50;;;;;;;15.41;100.00;101821.56;5044206;28;20067;-61
2022/10/17 09:29:24;;;;;;;23.17;16.45;;;;;;;15.37;100.00;101835.31;5044935;28;20112;-61
2022/10/17 09:32:01;;;;;;;25.02;16.65;;;;;;;15.32;100.00;101832.63;5040320;28;20030;-61
2022/10/17 09:34:29;;;;;;;22.33;16.73;;;;;;;15.35;100.00;101837.59;5013741;28;20084;-61
2022/10/17 09:36:57;;;;;;;22.98;16.63;;;;;;;15.34;100.00;101798.88;5031950;28;20250;-60
2022/10/17 09:39:25;;;;;;;23.95;16.48;;;;;;;15.37;100.00;101756.41;5031500;28;20429;-59
2022/10/17 09:41:54;;;;;;;24.02;16.77;;;;;;;15.30;100.00;101729.00;5038983;28;20029;-60
2022/10/17 09:44:23;;;;;;;22.80;16.30;;;;;;;15.33;100.00;101725.56;5051698;28;20033;-60
2022/10/17 09:47:09;;;;;;;25.63;16.67;;;;;;;15.46;100.00;101765.66;5051309;28;20036;-61
2022/10/17 09:49:39;;;;;;;23.85;17.27;;;;;;;15.51;100.00;101771.13;5050249;28;20049;-60
2022/10/17 09:52:11;;;;;;;24.75;16.90;;;;;;;15.53;100.00;101791.16;5051318;28;20116;-60
2022/10/17 09:55:02;;;;;;;24.50;17.05;;;;;;;15.53;100.00;101807.06;5051131;28;20111;-60
2022/10/17 09:57:28;;;;;;;25.85;17.30;;;;;;;15.50;100.00;101822.47;4998199;28;20036;-60
2022/10/17 09:59:56;;;;;;;25.95;17.88;;;;;;;15.49;100.00;101817.22;5050711;28;20029;-60
2022/10/17 10:02:23;;;;;;;25.52;17.63;;;;;;;15.49;100.00;101806.88;5051077;28;20111;-60
2022/10/17 10:05:00;;;;;;;24.95;17.75;;;;;;;15.53;100.00;101802.31;5043666;28;20125;-61
2022/10/17 10:07:29;;;;;;;23.33;16.60;;;;;;;15.52;100.00;101788.66;5030247;28;20392;-62
2022/10/17 10:09:56;;;;;;;24.75;18.50;;;;;;;15.65;100.00;101786.94;5030111;28;20136;-60
2022/10/17 10:12:25;;;;;;;24.35;18.05;;;;;;;15.62;100.00;101771.69;5030606;28;20078;-60
2022/10/17 10:14:51;;;;;;;24.63;17.67;;;;;;;15.75;100.00;101781.94;5030887;28;20471;-59
2022/10/17 10:17:33;;;;;;;25.20;18.10;;;;;;;15.78;100.00;101788.00;5030759;28;20085;-61
2022/10/17 10:19:58;;;;;;;26.10;19.25;;;;;;;15.83;100.00;101799.88;5036624;28;20025;-60
2022/10/17 10:22:24;;;;;;;28.42;20.17;;;;;;;15.84;100.00;101811.91;5045697;28;20167;-61
2022/10/17 10:25:24;;;;;;;25.58;19.67;;;;;;;15.85;100.00;101816.34;5041386;28;20040;-61
2022/10/17 10:27:50;;;;;;;25.35;18.90;;;;;;;15.83;100.00;101813.81;4965557;28;20433;-61
2022/10/17 10:30:18;;;;;;;26.45;18.25;;;;;;;15.85;100.00;101822.72;5017504;28;20049;-61
2022/10/17 10:32:47;;;;;;;24.35;17.95;;;;;;;15.88;100.00;101826.84;5030833;28;20715;-60
2022/10/17 10:35:21;;;;;;;23.17;17.08;;;;;;;15.96;100.00;101833.63;5030710;28;20071;-60
2022/10/17 10:37:49;;;;;;;23.20;17.08;;;;;;;15.97;100.00;101852.03;5030529;28;20476;-61
2022/10/17 10:40:19;;;;;;;23.40;17.30;;;;;;;16.00;100.00;101838.25;5030539;28;20354;-61
2022/10/17 10:42:50;;;;;;;22.88;16.45;;;;;;;16.10;100.00;101856.72;5030623;28;20057;-61
2022/10/17 10:45:35;;;;;;;25.60;17.02;;;;;;;16.08;100.00;101845.03;5031204;28;20025;-60
2022/10/17 10:48:25;;;;;;;25.67;16.50;;;;;;;16.18;100.00;101867.09;5031469;28;20053;-62
2022/10/17 10:51:06;;;;;;;24.15;16.80;;;;;;;16.17;100.00;101884.16;5010351;28;20045;-60
2022/10/17 10:53:39;;;;;;;23.08;16.83;;;;;;;16.13;100.00;101894.31;5030282;28;20059;-60
2022/10/17 10:56:22;;;;;;;21.88;16.30;;;;;;;16.10;100.00;101887.41;5029816;28;20475;-60
2022/10/17 10:59:06;;;;;;;21.88;16.40;;;;;;;16.07;100.00;101890.84;5029791;28;20559;-60
2022/10/17 11:01:51;;;;;;;23.63;16.15;;;;;;;16.01;100.00;101892.13;5029873;28;20029;-60
2022/10/17 11:04:26;;;;;;;22.42;16.33;;;;;;;15.98;100.00;101901.13;5012041;28;20369;-60
2022/10/17 11:06:57;;;;;;;22.23;16.23;;;;;;;15.94;100.00;101894.50;5030208;28;20025;-61
2022/10/17 11:09:43;;;;;;;22.10;16.00;;;;;;;15.87;100.00;101898.59;5030127;28;20141;-60
2022/10/17 11:12:19;;;;;;;23.27;16.15;;;;;;;15.86;100.00;101896.13;5030412;28;20034;-60
2022/10/17 11:14:57;;;;;;;21.83;15.07;;;;;;;15.85;100.00;101898.06;5030009;28;20108;-61